Terminal Aerodrome Forecast
Issued by NWS

Home | Current Version | Previous Version | Text Only | Print | Product List | Glossary On
Versions: 1 2 3 4 5 6 7 8 9 10 11 12 13 14 15 16
000
FTAK31 PANC 210522
TAFAIL
TAF
PAIL 210522Z 2106/2206 32006KT P6SM SKC
     FM211200 01010KT P6SM SKC
     FM212100 05010KT P6SM SKC
     FM220300 06012G20KT P6SM BKN035 WS020/14035KT=

USA.gov is the U.S. government's official web portal to all federal, state and local government web resources and services.